Time;durP1;ratioP1;P1;durP2;ratioP2;P2;SDS_P1;SDS_P2;PMS_P1;PMS_P2;Temp;Humidity;BMP_temperature;BMP_pressure;BME280_temperature;BME280_humidity;BME280_pressure;Samples;Min_cycle;Max_cycle;Signal;HPM_P1;HPM_P2
2022/08/17 00:00:15;;;;;;;2.58;2.17;;;24.20;86.20;;;;;;5071769;28;20269;-86
2022/08/17 00:03:08;;;;;;;1.98;1.88;;;24.20;86.80;;;;;;5063429;28;20287;-87
2022/08/17 00:05:42;;;;;;;3.08;2.35;;;24.20;86.80;;;;;;5056013;28;20222;-86
2022/08/17 00:08:11;;;;;;;2.30;2.20;;;24.10;86.80;;;;;;5055822;28;20234;-87
2022/08/17 00:10:40;;;;;;;2.30;2.05;;;24.10;87.20;;;;;;5055317;28;20245;-87
2022/08/17 00:13:10;;;;;;;3.03;2.78;;;24.00;87.50;;;;;;5055259;28;20288;-87
2022/08/17 00:15:39;;;;;;;2.72;2.53;;;24.00;87.50;;;;;;5055074;28;20198;-87
2022/08/17 00:18:07;;;;;;;2.45;2.25;;;24.00;88.00;;;;;;5055099;28;20216;-86
2022/08/17 00:20:58;;;;;;;1.92;1.83;;;23.90;88.30;;;;;;5055170;28;20232;-86
2022/08/17 00:23:27;;;;;;;3.05;2.28;;;23.90;88.90;;;;;;5055197;28;20205;-86
2022/08/17 00:25:55;;;;;;;2.38;2.17;;;23.80;89.80;;;;;;5054819;28;20240;-87
2022/08/17 00:28:24;;;;;;;2.50;2.30;;;23.70;90.20;;;;;;5054825;28;20241;-87
2022/08/17 00:30:53;;;;;;;2.20;2.00;;;23.60;90.30;;;;;;5054449;28;20233;-86
2022/08/17 00:33:24;;;;;;;1.90;1.80;;;23.50;90.50;;;;;;5054361;28;20206;-87
2022/08/17 00:35:53;;;;;;;2.03;1.92;;;23.50;90.60;;;;;;5055122;28;20266;-87
2022/08/17 00:38:24;;;;;;;2.20;2.03;;;23.50;90.80;;;;;;5054761;28;20224;-87
2022/08/17 00:40:54;;;;;;;2.05;1.90;;;23.40;91.00;;;;;;5054590;28;20232;-86
2022/08/17 00:43:29;;;;;;;2.38;2.20;;;23.30;91.20;;;;;;5054562;28;20209;-86
2022/08/17 00:45:59;;;;;;;2.63;1.95;;;23.30;91.30;;;;;;5054316;28;20308;-87
2022/08/17 00:48:27;;;;;;;2.28;2.03;;;23.30;91.50;;;;;;5054169;28;20205;-87
2022/08/17 00:51:02;;;;;;;2.25;2.05;;;23.20;91.40;;;;;;5054736;28;20309;-87
2022/08/17 00:53:36;;;;;;;2.55;2.28;;;23.20;91.50;;;;;;5054597;28;20214;-87
2022/08/17 00:56:07;;;;;;;2.33;2.13;;;23.20;92.10;;;;;;5054301;28;20284;-86
2022/08/17 00:58:36;;;;;;;2.05;1.95;;;23.20;91.90;;;;;;5054132;28;20292;-87
2022/08/17 01:01:06;;;;;;;3.58;2.28;;;23.10;92.10;;;;;;5054322;28;20300;-86
2022/08/17 01:03:37;;;;;;;2.40;2.20;;;23.10;92.20;;;;;;5054432;28;20213;-86
2022/08/17 01:06:07;;;;;;;2.05;1.95;;;23.10;92.30;;;;;;5054377;28;20225;-86
2022/08/17 01:08:39;;;;;;;2.10;2.00;;;23.00;92.50;;;;;;5054077;28;20209;-86
2022/08/17 01:11:08;;;;;;;1.92;1.83;;;23.00;92.70;;;;;;5054288;28;20229;-86
2022/08/17 01:13:39;;;;;;;1.85;1.75;;;22.90;92.80;;;;;;5054096;28;20259;-86
2022/08/17 01:16:16;;;;;;;2.33;2.13;;;22.90;93.00;;;;;;5054059;28;20202;-86
2022/08/17 01:18:45;;;;;;;3.50;2.08;;;22.90;93.10;;;;;;5053781;28;20209;-86
2022/08/17 01:21:20;;;;;;;2.38;2.17;;;22.90;93.20;;;;;;5053882;28;20308;-86
2022/08/17 01:23:50;;;;;;;2.60;2.40;;;22.90;93.30;;;;;;5053811;28;20288;-86
2022/08/17 01:26:19;;;;;;;2.53;2.30;;;22.90;93.50;;;;;;5053730;28;20241;-86
2022/08/17 01:28:48;;;;;;;1.75;1.65;;;22.80;93.60;;;;;;5053572;28;20293;-86
2022/08/17 01:31:24;;;;;;;2.20;2.00;;;22.80;93.60;;;;;;5053624;28;20233;-87
2022/08/17 01:33:52;;;;;;;3.75;2.25;;;22.80;93.80;;;;;;5054204;28;20210;-86
2022/08/17 01:36:21;;;;;;;2.00;1.90;;;22.80;93.90;;;;;;5053558;28;20232;-86
2022/08/17 01:38:51;;;;;;;2.00;1.90;;;22.80;94.00;;;;;;5053887;28;20277;-87
2022/08/17 01:41:23;;;;;;;2.10;2.00;;;22.80;93.90;;;;;;5053443;28;20324;-86
2022/08/17 01:43:58;;;;;;;2.63;2.22;;;22.80;94.00;;;;;;5053180;28;20279;-86
2022/08/17 01:46:30;;;;;;;2.20;2.03;;;22.80;93.80;;;;;;5053414;28;20222;-87
2022/08/17 01:49:00;;;;;;;2.05;1.95;;;22.80;93.70;;;;;;5052746;28;20296;-86
2022/08/17 01:51:31;;;;;;;2.50;2.30;;;22.80;93.80;;;;;;5053514;28;20230;-85
2022/08/17 01:54:05;;;;;;;2.63;2.38;;;22.70;93.90;;;;;;5053429;28;20222;-86
2022/08/17 01:56:35;;;;;;;2.55;2.35;;;22.80;93.80;;;;;;5053372;28;20198;-86
2022/08/17 01:59:04;;;;;;;2.42;2.25;;;22.70;93.70;;;;;;5053179;28;20252;-86
2022/08/17 02:01:34;;;;;;;2.03;1.77;;;22.80;94.00;;;;;;5053085;28;20308;-86
2022/08/17 02:04:03;;;;;;;2.08;1.98;;;22.80;94.00;;;;;;5053222;28;20241;-86
2022/08/17 02:06:34;;;;;;;1.85;1.75;;;22.80;94.00;;;;;;5053007;28;20233;-86
2022/08/17 02:09:23;;;;;;;2.25;2.15;;;22.80;93.90;;;;;;5053116;28;20210;-86
2022/08/17 02:11:53;;;;;;;2.13;1.92;;;22.70;93.80;;;;;;5053024;28;20235;-85
2022/08/17 02:14:22;;;;;;;2.65;2.45;;;22.70;94.00;;;;;;5053661;28;20285;-85
2022/08/17 02:16:50;;;;;;;2.40;2.20;;;22.70;94.00;;;;;;5052886;28;20201;-85
2022/08/17 02:19:19;;;;;;;2.00;1.90;;;22.70;93.90;;;;;;5053169;28;20233;-86
2022/08/17 02:21:50;;;;;;;2.38;2.28;;;22.70;94.10;;;;;;5053112;28;20312;-86
2022/08/17 02:24:24;;;;;;;2.55;2.35;;;22.70;94.30;;;;;;5052901;28;20297;-86
2022/08/17 02:27:12;;;;;;;2.08;1.88;;;22.60;94.60;;;;;;5052565;28;20236;-85
2022/08/17 02:29:43;;;;;;;2.60;2.13;;;22.60;94.40;;;;;;5052800;28;20210;-86
2022/08/17 02:32:20;;;;;;;2.63;2.10;;;22.50;94.20;;;;;;5052233;28;20237;-86
2022/08/17 02:34:56;;;;;;;1.73;1.63;;;22.40;94.30;;;;;;5052806;28;20227;-86
2022/08/17 02:37:24;;;;;;;3.88;2.50;;;22.40;94.70;;;;;;5052599;28;20220;-86
2022/08/17 02:39:55;;;;;;;2.63;2.22;;;22.40;95.30;;;;;;5052515;28;20202;-86
2022/08/17 02:42:27;;;;;;;2.30;2.10;;;22.40;95.70;;;;;;5053257;28;20225;-86
2022/08/17 02:44:56;;;;;;;2.28;2.05;;;22.40;95.80;;;;;;5052673;28;20206;-86
2022/08/17 02:47:24;;;;;;;2.17;2.08;;;22.30;96.00;;;;;;5051731;28;20225;-86
2022/08/17 02:49:53;;;;;;;2.50;2.30;;;22.30;96.10;;;;;;5052579;28;20252;-86
2022/08/17 02:52:24;;;;;;;2.92;2.15;;;22.30;96.40;;;;;;5052735;28;20337;-86
2022/08/17 02:55:14;;;;;;;2.25;2.05;;;22.20;96.70;;;;;;5052661;28;20266;-86
2022/08/17 02:57:43;;;;;;;15.75;2.17;;;22.20;97.00;;;;;;5057141;28;20233;-86
2022/08/17 03:00:15;;;;;;;2.08;1.98;;;22.20;97.20;;;;;;5056517;28;20268;-86
2022/08/17 03:02:44;;;;;;;2.58;2.38;;;22.10;98.00;;;;;;5056511;28;20205;-86
2022/08/17 03:05:15;;;;;;;3.00;2.78;;;22.10;97.90;;;;;;5056628;28;20209;-86
2022/08/17 03:07:44;;;;;;;2.58;2.38;;;22.10;98.10;;;;;;5056142;28;20309;-86
2022/08/17 03:10:15;;;;;;;2.35;2.25;;;22.00;98.30;;;;;;5056940;28;20213;-86
2022/08/17 03:12:45;;;;;;;2.63;2.42;;;22.00;98.60;;;;;;5056866;28;20257;-86
2022/08/17 03:15:15;;;;;;;4.10;2.35;;;21.90;99.00;;;;;;5056336;28;20236;-86
2022/08/17 03:17:45;;;;;;;1.77;1.67;;;21.90;99.10;;;;;;5056017;28;20288;-86
2022/08/17 03:20:15;;;;;;;2.80;2.50;;;21.90;99.10;;;;;;5056076;28;20212;-86
2022/08/17 03:22:46;;;;;;;2.47;2.28;;;21.80;99.20;;;;;;5056273;28;20205;-86
2022/08/17 03:25:25;;;;;;;2.70;2.42;;;21.80;99.60;;;;;;5056415;28;20201;-86
2022/08/17 03:27:54;;;;;;;3.00;2.45;;;21.80;99.90;;;;;;5056095;28;20328;-86
2022/08/17 03:30:23;;;;;;;2.75;2.55;;;21.80;99.90;;;;;;5056172;28;20285;-86
2022/08/17 03:32:54;;;;;;;2.78;2.58;;;21.80;99.90;;;;;;5058495;28;20224;-86
2022/08/17 03:35:26;;;;;;;2.58;2.38;;;21.80;99.90;;;;;;5068648;28;20218;-87
2022/08/17 03:37:55;;;;;;;2.92;2.58;;;21.80;99.90;;;;;;5067743;28;20228;-87
2022/08/17 03:40:29;;;;;;;2.60;2.40;;;21.70;99.90;;;;;;5056182;28;20209;-86
2022/08/17 03:43:19;;;;;;;2.13;2.03;;;21.70;99.90;;;;;;5055812;28;20216;-85
2022/08/17 03:57:12;;;;;;;2.85;2.65;;;21.60;99.90;;;;;;5055605;28;20209;-85
2022/08/17 03:59:40;;;;;;;2.95;2.70;;;21.60;99.90;;;;;;5055440;28;20261;-85
2022/08/17 04:02:13;;;;;;;3.00;2.70;;;21.50;99.90;;;;;;5055500;28;20228;-87
2022/08/17 04:04:41;;;;;;;2.60;2.40;;;21.50;99.90;;;;;;5055633;28;20216;-86
2022/08/17 04:07:10;;;;;;;2.63;2.42;;;21.50;99.90;;;;;;5054394;28;20252;-87
2022/08/17 04:09:38;;;;;;;2.42;2.22;;;21.50;99.90;;;;;;5055062;28;20297;-86
2022/08/17 04:12:06;;;;;;;3.35;2.60;;;21.50;99.90;;;;;;5055276;28;20232;-85
2022/08/17 04:14:37;;;;;;;2.28;2.17;;;21.50;99.90;;;;;;5055093;28;20296;-86
2022/08/17 04:17:21;;;;;;;2.88;2.30;;;21.50;99.90;;;;;;5055228;28;20233;-86
2022/08/17 04:19:49;;;;;;;2.60;2.40;;;21.40;99.90;;;;;;5055119;28;20217;-86
2022/08/17 04:22:17;;;;;;;3.30;2.80;;;21.40;99.90;;;;;;5055003;28;20313;-85
2022/08/17 04:25:06;;;;;;;3.10;2.30;;;21.40;99.90;;;;;;5054956;28;20230;-86
2022/08/17 04:27:34;;;;;;;2.40;2.25;;;21.40;99.90;;;;;;5054773;28;20300;-86
2022/08/17 04:30:06;;;;;;;2.25;2.15;;;21.40;99.90;;;;;;5055037;28;20240;-86
2022/08/17 04:32:51;;;;;;;3.13;2.80;;;21.40;99.90;;;;;;5055040;28;20273;-86
2022/08/17 04:35:37;;;;;;;4.97;2.53;;;21.40;99.90;;;;;;5054870;28;20209;-87
2022/08/17 04:38:06;;;;;;;2.42;2.22;;;21.40;99.90;;;;;;5054936;28;20229;-87
2022/08/17 04:43:22;;;;;;;2.65;2.42;;;21.50;99.90;;;;;;5054441;28;20237;-87
2022/08/17 04:45:54;;;;;;;2.72;2.35;;;21.40;99.90;;;;;;5054997;28;20296;-87
2022/08/17 04:48:26;;;;;;;4.32;2.90;;;21.50;99.90;;;;;;5053873;28;20230;-87
2022/08/17 04:51:06;;;;;;;3.40;2.92;;;21.50;99.90;;;;;;5054423;28;20226;-86
2022/08/17 04:53:34;;;;;;;5.32;3.13;;;21.50;99.90;;;;;;5054548;28;20229;-86
2022/08/17 04:56:02;;;;;;;3.50;3.13;;;21.50;99.90;;;;;;5054406;28;20202;-87
2022/08/17 04:58:31;;;;;;;4.75;2.85;;;21.50;99.90;;;;;;5054386;28;20201;-87
2022/08/17 05:01:01;;;;;;;4.35;2.40;;;21.60;99.90;;;;;;5054470;28;20289;-86
2022/08/17 05:03:30;;;;;;;3.20;2.60;;;21.60;99.90;;;;;;5054357;28;20210;-87
2022/08/17 05:05:58;;;;;;;2.88;2.67;;;21.60;99.90;;;;;;5054427;28;20214;-87
2022/08/17 05:08:26;;;;;;;3.63;2.67;;;21.60;99.90;;;;;;5053916;28;20226;-87
2022/08/17 05:10:54;;;;;;;2.65;2.45;;;21.70;99.90;;;;;;5054543;28;20226;-86
2022/08/17 05:13:24;;;;;;;2.97;2.78;;;21.70;99.90;;;;;;5054079;28;20208;-86
2022/08/17 05:15:55;;;;;;;19.73;3.10;;;21.70;99.90;;;;;;5054330;28;20286;-87
2022/08/17 05:18:26;;;;;;;3.00;2.70;;;21.80;99.90;;;;;;5053938;28;20284;-87
2022/08/17 05:20:54;;;;;;;2.75;2.55;;;21.80;99.90;;;;;;5053824;28;20308;-86
2022/08/17 05:23:25;;;;;;;3.03;2.78;;;21.80;99.90;;;;;;5054132;28;20269;-86
2022/08/17 05:26:10;;;;;;;3.03;2.83;;;21.90;99.90;;;;;;5053802;28;20315;-87
2022/08/17 05:28:52;;;;;;;3.20;2.38;;;21.90;99.90;;;;;;5053540;28;20236;-86
2022/08/17 05:31:21;;;;;;;3.33;2.92;;;21.90;99.90;;;;;;5053672;28;20293;-87
2022/08/17 05:33:51;;;;;;;5.25;3.30;;;21.90;99.90;;;;;;5053523;28;20218;-86
2022/08/17 05:36:19;;;;;;;3.22;2.75;;;22.00;99.90;;;;;;5053909;28;20210;-86
2022/08/17 05:39:07;;;;;;;3.30;2.78;;;22.00;99.90;;;;;;5053318;28;20217;-85
2022/08/17 05:41:42;;;;;;;3.33;3.03;;;22.10;99.90;;;;;;5053773;28;20225;-85
2022/08/17 05:44:11;;;;;;;3.95;3.03;;;22.10;99.90;;;;;;5053690;28;20205;-86
2022/08/17 05:46:44;;;;;;;3.92;2.42;;;22.10;99.90;;;;;;5053560;28;20253;-86
2022/08/17 05:49:16;;;;;;;2.85;2.65;;;22.20;99.90;;;;;;5053274;28;20220;-86
2022/08/17 05:52:13;;;;;;;3.65;3.00;;;22.20;99.90;;;;;;5053550;28;20226;-86
2022/08/17 05:54:57;;;;;;;2.67;2.30;;;22.20;99.90;;;;;;5046504;28;20209;-86
2022/08/17 05:57:40;;;;;;;5.10;3.42;;;22.30;99.90;;;;;;5053246;28;20285;-86
2022/08/17 06:00:18;;;;;;;2.92;2.72;;;22.30;99.90;;;;;;5053439;28;20202;-86
2022/08/17 06:03:00;;;;;;;4.13;2.80;;;22.40;99.90;;;;;;5053261;28;20210;-86
2022/08/17 06:05:43;;;;;;;2.97;2.47;;;22.50;99.90;;;;;;5053365;28;20258;-86
2022/08/17 06:08:20;;;;;;;2.53;2.33;;;22.60;99.90;;;;;;5053033;28;20233;-86
2022/08/17 06:10:58;;;;;;;2.58;1.98;;;22.80;99.90;;;;;;5053089;28;20252;-86
2022/08/17 06:13:38;;;;;;;2.55;2.38;;;22.80;99.90;;;;;;5053023;28;20209;-86
2022/08/17 06:16:11;;;;;;;3.63;2.33;;;22.90;99.90;;;;;;5052993;28;20209;-86
2022/08/17 06:19:02;;;;;;;3.15;2.90;;;23.00;99.90;;;;;;5052859;28;20201;-87
2022/08/17 06:21:37;;;;;;;3.60;2.53;;;23.10;99.90;;;;;;5053028;28;20229;-86
2022/08/17 06:24:13;;;;;;;2.78;2.45;;;23.20;99.90;;;;;;5052884;28;20292;-86
2022/08/17 06:26:44;;;;;;;3.60;2.50;;;23.30;99.90;;;;;;5053011;28;20201;-86
2022/08/17 06:29:20;;;;;;;2.70;2.33;;;23.50;99.90;;;;;;5052614;28;20281;-86
2022/08/17 06:31:48;;;;;;;2.42;2.20;;;23.60;99.90;;;;;;5052196;28;20229;-86
2022/08/17 06:34:18;;;;;;;3.10;2.33;;;23.70;99.90;;;;;;5052662;28;20261;-86
2022/08/17 06:36:56;;;;;;;3.67;3.05;;;23.80;99.90;;;;;;5052472;28;20244;-86
2022/08/17 06:39:43;;;;;;;3.08;2.88;;;23.90;99.90;;;;;;5052903;28;20262;-86
2022/08/17 06:42:19;;;;;;;2.80;2.60;;;24.00;99.90;;;;;;5052974;28;20231;-85
2022/08/17 06:45:11;;;;;;;2.63;2.42;;;24.10;99.90;;;;;;5052295;28;20205;-86
2022/08/17 06:47:47;;;;;;;2.80;2.60;;;24.30;99.90;;;;;;5052181;28;20304;-86
2022/08/17 06:50:19;;;;;;;3.72;2.63;;;24.40;99.90;;;;;;5052375;28;20296;-86
2022/08/17 06:52:55;;;;;;;3.25;2.95;;;24.50;99.90;;;;;;5052781;28;20256;-86
2022/08/17 06:55:29;;;;;;;3.30;2.65;;;24.50;99.90;;;;;;5052506;28;20296;-86
2022/08/17 06:58:07;;;;;;;3.03;2.67;;;24.70;99.90;;;;;;5052271;28;20231;-86
2022/08/17 07:00:46;;;;;;;4.05;3.65;;;24.80;99.90;;;;;;5052065;28;20240;-86
2022/08/17 07:03:26;;;;;;;4.03;2.95;;;24.90;99.90;;;;;;5052420;28;20213;-86
2022/08/17 07:05:58;;;;;;;3.78;3.28;;;25.00;99.90;;;;;;5052750;28;20198;-86
2022/08/17 07:08:36;;;;;;;3.00;2.80;;;25.10;99.80;;;;;;5056989;28;20225;-85
2022/08/17 07:11:09;;;;;;;10.85;3.97;;;25.20;99.10;;;;;;5059517;28;20253;-86
2022/08/17 07:13:45;;;;;;;3.75;3.10;;;25.40;99.40;;;;;;5052565;28;20288;-87
2022/08/17 07:16:23;;;;;;;6.60;4.05;;;25.60;99.20;;;;;;5052446;28;20284;-86
2022/08/17 07:18:54;;;;;;;5.50;3.38;;;25.70;99.20;;;;;;5052352;28;20221;-87
2022/08/17 07:21:40;;;;;;;7.05;3.88;;;26.10;99.40;;;;;;5052402;28;20228;-86
2022/08/17 07:24:27;;;;;;;6.88;4.10;;;26.40;99.70;;;;;;5052705;28;20277;-86
2022/08/17 07:27:11;;;;;;;4.55;3.78;;;26.70;99.20;;;;;;5052528;28;20214;-86
2022/08/17 07:29:42;;;;;;;5.13;2.85;;;26.90;98.40;;;;;;5051834;28;20249;-86
2022/08/17 07:32:17;;;;;;;3.05;2.85;;;27.10;98.20;;;;;;5051941;28;20317;-86
2022/08/17 07:35:13;;;;;;;6.32;3.33;;;27.10;98.00;;;;;;5052195;28;20263;-86
2022/08/17 07:37:44;;;;;;;5.18;3.55;;;27.30;97.10;;;;;;5052374;28;20220;-86
2022/08/17 07:40:20;;;;;;;6.53;3.92;;;27.70;96.70;;;;;;5052082;28;20205;-86
2022/08/17 07:43:08;;;;;;;3.30;3.00;;;27.90;96.10;;;;;;5052675;28;20209;-86
2022/08/17 07:48:47;;;;;;;3.17;2.97;;;28.60;94.40;;;;;;5055175;28;20260;-87
2022/08/17 07:51:25;;;;;;;5.05;2.97;;;28.90;93.40;;;;;;5055797;28;20312;-86
2022/08/17 07:53:56;;;;;;;4.63;3.00;;;29.10;92.90;;;;;;5055736;28;20300;-86
2022/08/17 07:56:46;;;;;;;3.10;2.80;;;29.50;92.60;;;;;;5055969;28;20202;-87
2022/08/17 07:59:18;;;;;;;4.18;2.83;;;29.90;92.00;;;;;;5055571;28;20217;-86
2022/08/17 08:02:04;;;;;;;3.30;3.00;;;30.20;90.80;;;;;;5055202;28;20226;-86
2022/08/17 08:04:37;;;;;;;2.72;2.53;;;30.70;90.30;;;;;;5055209;28;20212;-86
2022/08/17 08:07:30;;;;;;;2.95;2.70;;;31.20;88.20;;;;;;5055468;28;20208;-87
2022/08/17 08:10:07;;;;;;;2.10;1.95;;;31.70;85.90;;;;;;5055030;28;20213;-86
2022/08/17 08:12:39;;;;;;;2.67;2.45;;;32.30;84.50;;;;;;5055462;28;20225;-86
2022/08/17 08:15:17;;;;;;;10.40;2.85;;;33.10;84.10;;;;;;5055313;28;20201;-86
2022/08/17 08:17:51;;;;;;;3.33;2.53;;;33.90;80.20;;;;;;5055257;28;20205;-86
2022/08/17 08:20:29;;;;;;;6.30;3.53;;;34.60;77.70;;;;;;5054958;28;20283;-86
2022/08/17 08:23:29;;;;;;;2.70;2.50;;;35.20;76.50;;;;;;5054904;28;20208;-87
2022/08/17 08:26:13;;;;;;;2.65;2.45;;;35.70;74.20;;;;;;5054951;28;20212;-86
2022/08/17 08:28:57;;;;;;;9.38;2.30;;;36.10;71.20;;;;;;5054664;28;20288;-86
2022/08/17 08:31:36;;;;;;;3.20;2.83;;;36.90;69.90;;;;;;5054820;28;20228;-87
2022/08/17 08:34:18;;;;;;;2.42;2.22;;;37.50;68.00;;;;;;5054958;28;20228;-87
2022/08/17 08:37:18;;;;;;;19.83;2.90;;;37.60;66.50;;;;;;5055019;28;20201;-87
2022/08/17 08:40:09;;;;;;;1.83;1.73;;;38.10;65.80;;;;;;5054686;28;20209;-87
2022/08/17 08:42:45;;;;;;;2.75;2.50;;;38.60;63.10;;;;;;5054680;28;20292;-87
2022/08/17 08:45:22;;;;;;;2.58;2.38;;;38.30;61.40;;;;;;5054863;28;20205;-86
2022/08/17 08:48:12;;;;;;;2.63;2.42;;;38.50;61.70;;;;;;5054590;28;20240;-87
2022/08/17 08:51:10;;;;;;;6.20;3.03;;;38.80;61.20;;;;;;5054518;28;20225;-87
2022/08/17 08:53:47;;;;;;;3.38;3.08;;;39.10;59.70;;;;;;5054274;28;20209;-87
2022/08/17 08:56:24;;;;;;;4.40;3.40;;;38.90;58.60;;;;;;5055049;28;20209;-88
2022/08/17 08:59:01;;;;;;;3.28;2.75;;;38.90;59.00;;;;;;5054166;28;20205;-87
2022/08/17 09:01:37;;;;;;;2.88;2.65;;;39.40;59.70;;;;;;5054251;28;20303;-88
2022/08/17 09:04:23;;;;;;;2.92;2.60;;;40.10;58.10;;;;;;5054462;28;20208;-87
2022/08/17 09:07:04;;;;;;;3.25;2.60;;;40.40;58.20;;;;;;5054609;28;20251;-88
2022/08/17 09:09:41;;;;;;;2.78;2.58;;;40.70;56.80;;;;;;5053989;28;20304;-87
2022/08/17 09:12:17;;;;;;;3.25;3.05;;;40.70;56.00;;;;;;5054503;28;20224;-88
2022/08/17 09:14:56;;;;;;;3.17;2.97;;;40.50;54.90;;;;;;5054429;28;20215;-88
2022/08/17 09:17:38;;;;;;;2.70;2.40;;;40.20;54.30;;;;;;5054170;28;20209;-88
2022/08/17 09:20:18;;;;;;;2.70;2.50;;;40.50;54.70;;;;;;5054077;28;20197;-88
2022/08/17 09:22:59;;;;;;;5.03;2.50;;;40.70;54.40;;;;;;5054193;28;20213;-87
2022/08/17 09:25:34;;;;;;;2.67;2.47;;;41.00;54.40;;;;;;5053946;28;20266;-88
2022/08/17 09:28:07;;;;;;;3.08;2.58;;;41.30;54.30;;;;;;5053708;28;20291;-88
2022/08/17 09:30:44;;;;;;;3.15;2.90;;;41.40;53.30;;;;;;5053189;28;20249;-88
2022/08/17 09:33:18;;;;;;;2.65;2.40;;;41.40;53.60;;;;;;5054127;28;20292;-87
2022/08/17 09:35:53;;;;;;;2.58;2.38;;;41.80;52.10;;;;;;5053811;28;20212;-88
2022/08/17 09:38:26;;;;;;;2.50;2.38;;;42.20;52.40;;;;;;5053255;28;20288;-88
2022/08/17 09:41:08;;;;;;;2.75;2.10;;;42.30;51.50;;;;;;5053505;28;20229;-88
2022/08/17 09:43:43;;;;;;;2.70;2.50;;;42.30;50.90;;;;;;5053598;28;20305;-87
2022/08/17 09:46:18;;;;;;;2.95;2.55;;;42.00;51.00;;;;;;5053617;28;20284;-88
2022/08/17 09:48:55;;;;;;;3.10;2.50;;;42.40;49.80;;;;;;5053082;28;20204;-87
2022/08/17 09:51:32;;;;;;;2.17;1.95;;;42.10;50.90;;;;;;5053156;28;20221;-88
2022/08/17 09:54:00;;;;;;;2.03;1.92;;;42.50;49.20;;;;;;5053722;28;20283;-88
2022/08/17 09:57:00;;;;;;;2.72;2.53;;;42.80;49.40;;;;;;5053180;28;20205;-88
2022/08/17 10:00:00;;;;;;;3.15;2.95;;;42.80;48.40;;;;;;5052889;28;20209;-88
2022/08/17 10:02:42;;;;;;;2.75;2.55;;;42.30;47.20;;;;;;5053268;28;20307;-88
2022/08/17 10:05:17;;;;;;;2.55;2.35;;;42.70;48.30;;;;;;5052951;28;20215;-87
2022/08/17 10:07:52;;;;;;;3.22;2.92;;;42.60;48.80;;;;;;5053059;28;20300;-88
2022/08/17 10:10:25;;;;;;;5.38;2.58;;;42.80;48.30;;;;;;5052620;28;20308;-88
2022/08/17 10:12:58;;;;;;;2.85;2.38;;;43.10;46.20;;;;;;5053113;28;20213;-88
2022/08/17 10:15:38;;;;;;;3.38;2.42;;;43.50;46.30;;;;;;5053254;28;20264;-85
2022/08/17 10:18:34;;;;;;;2.97;2.72;;;43.80;44.40;;;;;;5053237;28;20204;-88
2022/08/17 10:26:51;;;;;;;4.22;2.50;;;43.40;44.70;;;;;;5052687;28;20268;-88
2022/08/17 10:29:29;;;;;;;3.00;2.80;;;43.00;44.60;;;;;;5052667;28;20223;-87
2022/08/17 10:32:24;;;;;;;9.73;2.47;;;42.50;44.60;;;;;;5052641;28;20253;-88
2022/08/17 10:35:33;;;;;;;2.58;2.38;;;42.40;45.30;;;;;;5052541;28;20292;-88
2022/08/17 10:38:37;;;;;;;2.30;2.20;;;42.40;46.40;;;;;;5039883;28;20212;-88
2022/08/17 10:41:22;;;;;;;3.08;2.75;;;41.70;45.90;;;;;;5052586;28;20317;-88
2022/08/17 10:44:02;;;;;;;3.65;3.10;;;41.80;46.70;;;;;;5052723;28;20288;-88
2022/08/17 10:47:01;;;;;;;2.88;2.67;;;42.00;47.00;;;;;;5052738;28;20209;-88
2022/08/17 10:49:32;;;;;;;3.17;2.88;;;42.10;46.50;;;;;;5059652;28;20260;-88
2022/08/17 10:52:03;;;;;;;3.55;3.13;;;41.80;45.90;;;;;;5060903;28;20287;-88
2022/08/17 10:54:45;;;;;;;3.47;3.05;;;41.70;45.30;;;;;;5052738;28;20291;-88
2022/08/17 10:57:42;;;;;;;3.58;2.97;;;41.70;45.80;;;;;;5052973;28;20216;-86
2022/08/17 11:00:56;;;;;;;3.60;3.03;;;41.80;45.90;;;;;;5052300;28;20201;-86
2022/08/17 11:03:26;;;;;;;2.67;2.47;;;41.90;45.10;;;;;;5040217;28;20226;-85
2022/08/17 11:06:11;;;;;;;3.20;2.90;;;41.60;45.10;;;;;;5052338;28;20280;-85
2022/08/17 11:09:07;;;;;;;2.70;2.50;;;41.40;45.30;;;;;;5052217;28;20283;-85
2022/08/17 11:11:49;;;;;;;2.53;2.33;;;41.60;45.50;;;;;;5052197;28;20486;-86
2022/08/17 11:14:34;;;;;;;3.30;3.00;;;41.80;44.70;;;;;;5052695;28;20284;-86
2022/08/17 11:17:14;;;;;;;2.25;2.15;;;41.90;44.70;;;;;;5053892;28;20288;-85
2022/08/17 11:20:12;;;;;;;2.63;2.42;;;41.70;43.40;;;;;;5056151;28;20211;-85
2022/08/17 11:23:15;;;;;;;2.78;2.58;;;41.90;44.00;;;;;;5056379;28;20307;-88
2022/08/17 11:25:48;;;;;;;3.25;2.75;;;42.10;43.90;;;;;;5056622;28;20229;-85
2022/08/17 11:28:22;;;;;;;2.75;2.47;;;42.10;42.30;;;;;;5056390;28;20304;-85
2022/08/17 11:30:53;;;;;;;3.65;2.92;;;42.40;43.90;;;;;;5055619;28;20245;-85
2022/08/17 11:33:52;;;;;;;5.03;2.60;;;42.50;42.50;;;;;;5055951;28;20201;-85
2022/08/17 11:36:45;;;;;;;2.30;2.17;;;42.90;41.70;;;;;;5055975;28;20232;-85
2022/08/17 11:39:32;;;;;;;2.60;2.40;;;42.80;42.40;;;;;;5055974;28;20284;-88
2022/08/17 11:42:05;;;;;;;2.88;2.60;;;43.00;43.80;;;;;;5055954;28;20225;-88
2022/08/17 11:44:51;;;;;;;11.45;2.72;;;43.40;41.80;;;;;;5055873;28;20283;-88
2022/08/17 11:53:59;;;;;;;2.90;2.60;;;43.80;42.00;;;;;;5055536;28;20292;-86
2022/08/17 11:56:48;;;;;;;2.40;2.20;;;43.80;41.50;;;;;;5055188;28;20209;-89
2022/08/17 11:59:57;;;;;;;6.18;2.50;;;43.80;41.70;;;;;;5055196;28;20213;-85
2022/08/17 12:02:41;;;;;;;2.75;2.55;;;43.80;41.30;;;;;;5055333;28;20225;-88
2022/08/17 12:05:32;;;;;;;3.58;3.28;;;43.80;40.40;;;;;;5055454;28;20212;-88
2022/08/17 12:08:14;;;;;;;3.00;2.80;;;44.00;39.60;;;;;;5055571;28;20193;-88
2022/08/17 12:10:59;;;;;;;10.48;2.75;;;43.90;39.70;;;;;;5054969;28;20288;-88
2022/08/17 12:13:29;;;;;;;2.50;2.08;;;43.90;38.70;;;;;;5054849;28;20299;-88
2022/08/17 12:16:13;;;;;;;2.85;2.65;;;43.50;41.00;;;;;;5055010;28;20212;-88
2022/08/17 12:18:49;;;;;;;2.78;2.53;;;43.60;40.00;;;;;;5054637;28;20209;-88
2022/08/17 12:21:27;;;;;;;2.63;2.42;;;43.80;40.50;;;;;;5054859;28;20229;-88
2022/08/17 12:24:05;;;;;;;2.90;2.67;;;43.80;39.90;;;;;;5054859;28;20209;-88
2022/08/17 12:26:35;;;;;;;3.72;2.65;;;43.80;38.90;;;;;;5055398;28;20204;-89
2022/08/17 12:29:07;;;;;;;2.40;2.20;;;43.60;38.50;;;;;;5053928;28;20308;-89
2022/08/17 12:31:49;;;;;;;2.10;2.00;;;42.90;38.70;;;;;;5054688;28;20229;-89
2022/08/17 12:34:20;;;;;;;3.50;2.78;;;42.40;38.70;;;;;;5054724;28;20217;-89
2022/08/17 12:36:50;;;;;;;2.92;2.70;;;42.40;39.70;;;;;;5054513;28;20209;-88
2022/08/17 12:39:22;;;;;;;2.78;2.58;;;42.70;40.10;;;;;;5054622;28;20211;-88
2022/08/17 12:41:55;;;;;;;4.95;2.80;;;42.80;38.90;;;;;;5054285;28;20279;-88
2022/08/17 12:44:31;;;;;;;2.88;2.33;;;42.90;40.30;;;;;;5054333;28;20232;-89
2022/08/17 12:47:05;;;;;;;3.20;2.50;;;43.10;39.80;;;;;;5054602;28;20288;-89
2022/08/17 12:49:35;;;;;;;2.85;2.65;;;43.00;39.90;;;;;;5054109;28;20215;-89
2022/08/17 12:52:11;;;;;;;2.88;2.22;;;43.00;39.80;;;;;;5054386;28;20293;-88
2022/08/17 12:54:46;;;;;;;2.45;2.25;;;42.80;39.40;;;;;;5054275;28;20200;-88
2022/08/17 12:57:21;;;;;;;2.60;2.40;;;42.40;38.90;;;;;;5054336;28;20284;-87
2022/08/17 12:59:54;;;;;;;2.67;2.47;;;42.40;39.20;;;;;;5054121;28;20235;-88
2022/08/17 13:02:41;;;;;;;2.85;2.65;;;42.50;40.40;;;;;;5053971;28;20232;-88
2022/08/17 13:05:17;;;;;;;2.67;2.40;;;42.50;39.80;;;;;;5052739;28;20213;-88
2022/08/17 13:07:46;;;;;;;2.88;2.22;;;42.50;38.80;;;;;;5054243;28;20204;-89
2022/08/17 13:10:21;;;;;;;4.00;2.63;;;42.40;39.40;;;;;;5054054;28;20287;-88
2022/08/17 13:12:51;;;;;;;3.05;2.35;;;41.80;38.60;;;;;;5053899;28;20232;-88
2022/08/17 13:15:28;;;;;;;4.38;2.70;;;41.70;40.20;;;;;;5053830;28;20201;-89
2022/08/17 13:18:07;;;;;;;2.58;2.40;;;41.50;40.60;;;;;;5053629;28;20300;-88
2022/08/17 13:20:37;;;;;;;7.13;2.60;;;41.40;39.50;;;;;;5053753;28;20220;-88
2022/08/17 13:23:09;;;;;;;3.22;2.58;;;41.40;40.10;;;;;;5053665;28;20205;-88
2022/08/17 13:25:40;;;;;;;2.90;2.70;;;41.20;39.30;;;;;;5053705;28;20262;-88
2022/08/17 13:28:18;;;;;;;2.28;2.13;;;40.80;39.60;;;;;;5053538;28;20209;-88
2022/08/17 13:31:25;;;;;;;1.95;1.85;;;40.60;40.50;;;;;;5053470;28;20221;-89
2022/08/17 13:34:12;;;;;;;4.93;2.33;;;40.80;41.30;;;;;;5053709;28;20213;-88
2022/08/17 13:36:43;;;;;;;2.22;2.13;;;40.80;39.60;;;;;;5053056;28;20283;-88
2022/08/17 13:39:17;;;;;;;2.53;2.33;;;40.60;41.90;;;;;;5053409;28;20209;-89
2022/08/17 13:41:48;;;;;;;2.53;2.33;;;40.50;41.30;;;;;;5052332;28;20252;-88
2022/08/17 13:44:35;;;;;;;2.83;2.50;;;40.50;40.80;;;;;;5053468;28;20202;-89
2022/08/17 13:47:06;;;;;;;3.05;2.80;;;40.20;40.60;;;;;;5053116;28;20209;-88
2022/08/17 13:49:37;;;;;;;3.35;3.05;;;40.30;41.20;;;;;;5053143;28;20215;-88
2022/08/17 13:52:35;;;;;;;2.63;2.42;;;39.70;41.20;;;;;;5053330;28;20291;-88
2022/08/17 13:55:08;;;;;;;2.78;2.58;;;39.90;41.90;;;;;;5053400;28;20209;-88
2022/08/17 13:57:37;;;;;;;3.65;2.90;;;39.80;40.30;;;;;;5053205;28;20296;-89
2022/08/17 14:00:18;;;;;;;2.50;2.30;;;39.60;40.90;;;;;;5052762;28;20205;-88
2022/08/17 14:02:46;;;;;;;2.40;2.20;;;39.20;40.40;;;;;;5053296;28;20288;-88